createdAt,value
2018-02-18T00:00:50.264Z,1030.98
2018-02-18T00:02:17.544Z,1030.99
2018-02-18T00:03:44.618Z,1031.01
2018-02-18T00:05:11.757Z,1031.02
2018-02-18T00:06:38.954Z,1031.04
2018-02-18T00:08:05.793Z,1031.04
2018-02-18T00:09:33.016Z,1031.04
2018-02-18T00:10:59.910Z,1031.05
2018-02-18T00:12:26.832Z,1031.05
2018-02-18T00:13:53.702Z,1031.03
2018-02-18T00:15:20.944Z,1031.04
2018-02-18T00:16:47.920Z,1031.05
2018-02-18T00:18:14.945Z,1031.10
2018-02-18T00:19:42.160Z,1031.10
2018-02-18T00:21:09.134Z,1031.10
2018-02-18T00:22:36.352Z,1031.09
2018-02-18T00:24:03.754Z,1031.12
2018-02-18T00:25:30.936Z,1031.13
2018-02-18T00:26:58.038Z,1031.13
2018-02-18T00:28:25.506Z,1031.12
2018-02-18T00:29:52.695Z,1031.13
2018-02-18T00:31:19.707Z,1031.14
2018-02-18T00:32:46.788Z,1031.15
2018-02-18T00:34:13.593Z,1031.17
2018-02-18T00:35:40.777Z,1031.16
2018-02-18T00:37:07.769Z,1031.18
2018-02-18T00:38:34.985Z,1031.17
2018-02-18T00:40:02.097Z,1031.15
2018-02-18T00:41:29.284Z,1031.17
2018-02-18T00:42:56.485Z,1031.16
2018-02-18T00:44:23.789Z,1031.16
2018-02-18T00:45:50.970Z,1031.17
2018-02-18T00:47:18.242Z,1031.13
2018-02-18T00:48:45.244Z,1031.12
2018-02-18T00:50:12.433Z,1031.13
2018-02-18T00:51:39.507Z,1031.15
2018-02-18T00:53:06.545Z,1031.18
2018-02-18T00:54:33.645Z,1031.17
2018-02-18T00:56:00.849Z,1031.15
2018-02-18T00:57:27.859Z,1031.17
2018-02-18T00:58:55.074Z,1031.20
2018-02-18T01:00:22.232Z,1031.21
2018-02-18T01:01:49.617Z,1031.22
2018-02-18T01:03:16.800Z,1031.23
2018-02-18T01:04:43.932Z,1031.23
2018-02-18T01:06:10.943Z,1031.26
2018-02-18T01:07:38.024Z,1031.26
2018-02-18T01:09:05.209Z,1031.26
2018-02-18T01:10:32.452Z,1031.26
2018-02-18T01:11:59.858Z,1031.28
2018-02-18T01:13:27.140Z,1031.29
2018-02-18T01:14:54.360Z,1031.29
2018-02-18T01:16:21.628Z,1031.28
2018-02-18T01:17:48.720Z,1031.24
2018-02-18T01:19:15.753Z,1031.27
2018-02-18T01:20:43.052Z,1031.26
2018-02-18T01:22:10.101Z,1031.29
2018-02-18T01:23:37.534Z,1031.28
2018-02-18T01:25:04.818Z,1031.26
2018-02-18T01:26:32.091Z,1031.30
2018-02-18T01:27:59.178Z,1031.31
2018-02-18T01:29:26.388Z,1031.32
2018-02-18T01:30:53.653Z,1031.34
2018-02-18T01:32:20.601Z,1031.33
2018-02-18T01:33:47.813Z,1031.32
2018-02-18T01:35:15.044Z,1031.30
2018-02-18T01:36:42.183Z,1031.33
2018-02-18T01:38:09.132Z,1031.33
2018-02-18T01:39:36.552Z,1031.35
2018-02-18T01:41:03.869Z,1031.33
2018-02-18T01:42:30.961Z,1031.29
2018-02-18T01:43:58.310Z,1031.29
2018-02-18T01:45:25.369Z,1031.27
2018-02-18T01:46:52.766Z,1031.28
2018-02-18T01:48:20.081Z,1031.29
2018-02-18T01:49:47.406Z,1031.33
2018-02-18T01:51:14.799Z,1031.32
2018-02-18T01:52:41.764Z,1031.32
2018-02-18T01:54:08.875Z,1031.31
2018-02-18T01:55:35.944Z,1031.33
2018-02-18T01:57:03.236Z,1031.33
2018-02-18T01:58:30.441Z,1031.34
2018-02-18T01:59:57.751Z,1031.33
2018-02-18T02:01:24.856Z,1031.31
2018-02-18T02:02:51.923Z,1031.29
2018-02-18T02:04:19.073Z,1031.28
2018-02-18T02:05:46.273Z,1031.31
2018-02-18T02:07:13.412Z,1031.32
2018-02-18T02:08:40.500Z,1031.31
2018-02-18T02:10:07.313Z,1031.29
2018-02-18T02:11:34.380Z,1031.28
2018-02-18T02:13:01.608Z,1031.28
2018-02-18T02:14:28.416Z,1031.22
2018-02-18T02:15:55.533Z,1031.22
2018-02-18T02:17:22.701Z,1031.19
2018-02-18T02:18:49.988Z,1031.18
2018-02-18T02:20:17.015Z,1031.19
2018-02-18T02:21:44.154Z,1031.19
2018-02-18T02:23:11.254Z,1031.20
2018-02-18T02:24:38.006Z,1031.23
2018-02-18T02:26:05.221Z,1031.25
2018-02-18T02:27:32.455Z,1031.26
2018-02-18T02:28:59.747Z,1031.23
2018-02-18T02:30:26.704Z,1031.24
2018-02-18T02:31:53.971Z,1031.23
2018-02-18T02:33:21.089Z,1031.22
2018-02-18T02:34:48.204Z,1031.18
2018-02-18T02:36:15.750Z,1031.16
2018-02-18T02:37:42.944Z,1031.16
2018-02-18T02:39:10.064Z,1031.22
2018-02-18T02:40:37.182Z,1031.21
2018-02-18T02:42:04.361Z,1031.23
2018-02-18T02:43:31.703Z,1031.22
2018-02-18T02:44:58.904Z,1031.26
2018-02-18T02:46:26.179Z,1031.26
2018-02-18T02:47:53.433Z,1031.29
2018-02-18T02:49:20.671Z,1031.31
2018-02-18T02:50:47.897Z,1031.31
2018-02-18T02:52:15.311Z,1031.29
2018-02-18T02:53:42.377Z,1031.33
2018-02-18T02:55:09.701Z,1031.33
2018-02-18T02:56:36.864Z,1031.34
2018-02-18T02:58:04.006Z,1031.36
2018-02-18T02:59:31.144Z,1031.35
2018-02-18T03:00:58.468Z,1031.33
2018-02-18T03:02:25.463Z,1031.32
2018-02-18T03:03:52.591Z,1031.31
2018-02-18T03:05:19.875Z,1031.33
2018-02-18T03:06:47.035Z,1031.35
2018-02-18T03:08:14.188Z,1031.33
2018-02-18T03:09:41.201Z,1031.32
2018-02-18T03:11:08.211Z,1031.34
2018-02-18T03:12:35.399Z,1031.32
2018-02-18T03:14:02.717Z,1031.33
2018-02-18T03:15:30.021Z,1031.35
2018-02-18T03:16:57.295Z,1031.34
2018-02-18T03:18:24.327Z,1031.34
2018-02-18T03:19:51.523Z,1031.33
2018-02-18T03:21:18.697Z,1031.34
2018-02-18T03:22:45.813Z,1031.35
2018-02-18T03:24:13.008Z,1031.34
2018-02-18T03:25:40.111Z,1031.32
2018-02-18T03:27:07.073Z,1031.32
2018-02-18T03:28:34.257Z,1031.33
2018-02-18T03:30:01.220Z,1031.34
2018-02-18T03:31:28.409Z,1031.34
2018-02-18T03:32:55.614Z,1031.36
2018-02-18T03:34:22.839Z,1031.36
2018-02-18T03:35:49.996Z,1031.36
2018-02-18T03:37:17.325Z,1031.36
2018-02-18T03:38:44.598Z,1031.37
2018-02-18T03:40:11.498Z,1031.36
2018-02-18T03:41:38.645Z,1031.37
2018-02-18T03:43:05.746Z,1031.39
2018-02-18T03:44:32.818Z,1031.39
2018-02-18T03:46:00.015Z,1031.38
2018-02-18T03:47:27.202Z,1031.40
2018-02-18T03:48:54.321Z,1031.42
2018-02-18T03:50:21.737Z,1031.41
2018-02-18T03:51:48.797Z,1031.40
2018-02-18T03:53:16.106Z,1031.37
2018-02-18T03:54:43.331Z,1031.39
2018-02-18T03:56:10.525Z,1031.41
2018-02-18T03:57:37.417Z,1031.39
2018-02-18T03:59:04.488Z,1031.38
2018-02-18T04:00:31.701Z,1031.40
2018-02-18T04:01:58.845Z,1031.39
2018-02-18T04:03:25.785Z,1031.39
2018-02-18T04:04:52.954Z,1031.40
2018-02-18T04:06:20.293Z,1031.40
2018-02-18T04:07:47.498Z,1031.40
2018-02-18T04:09:14.735Z,1031.44
2018-02-18T04:10:41.730Z,1031.42
2018-02-18T04:12:08.927Z,1031.45
2018-02-18T04:13:35.810Z,1031.46
2018-02-18T04:15:03.072Z,1031.47
2018-02-18T04:16:30.164Z,1031.48
2018-02-18T04:17:57.426Z,1031.46
2018-02-18T04:19:24.512Z,1031.48
2018-02-18T04:20:51.859Z,1031.47
2018-02-18T04:22:19.070Z,1031.47
2018-02-18T04:23:46.061Z,1031.46
2018-02-18T04:25:13.278Z,1031.45
2018-02-18T04:26:40.444Z,1031.46
2018-02-18T04:28:07.392Z,1031.45
2018-02-18T04:29:34.719Z,1031.46
2018-02-18T04:31:01.800Z,1031.47
2018-02-18T04:32:29.050Z,1031.46
2018-02-18T04:33:56.300Z,1031.46
2018-02-18T04:35:23.618Z,1031.48
2018-02-18T04:36:50.766Z,1031.47
2018-02-18T04:38:17.934Z,1031.49
2018-02-18T04:39:44.998Z,1031.48
2018-02-18T04:41:12.016Z,1031.48
2018-02-18T04:42:39.089Z,1031.45
2018-02-18T04:44:06.256Z,1031.45
2018-02-18T04:45:33.596Z,1031.44
2018-02-18T04:47:00.577Z,1031.46
2018-02-18T04:48:27.882Z,1031.48
2018-02-18T04:49:55.069Z,1031.51
2018-02-18T04:51:22.316Z,1031.53
2018-02-18T04:52:49.522Z,1031.53
2018-02-18T04:54:16.717Z,1031.54
2018-02-18T04:55:43.707Z,1031.55
2018-02-18T04:57:11.028Z,1031.59
2018-02-18T04:58:38.173Z,1031.57
2018-02-18T05:00:05.162Z,1031.60
2018-02-18T05:01:32.297Z,1031.61
2018-02-18T05:02:59.534Z,1031.65
2018-02-18T05:04:26.765Z,1031.68
2018-02-18T05:05:53.819Z,1031.69
2018-02-18T05:07:21.035Z,1031.73
2018-02-18T05:08:48.281Z,1031.77
2018-02-18T05:10:15.609Z,1031.77
2018-02-18T05:11:42.635Z,1031.77
2018-02-18T05:13:09.709Z,1031.78
2018-02-18T05:14:36.841Z,1031.79
2018-02-18T05:16:04.061Z,1031.78
2018-02-18T05:17:31.240Z,1031.81
2018-02-18T05:18:58.520Z,1031.84
2018-02-18T05:20:25.602Z,1031.82
2018-02-18T05:21:52.748Z,1031.85
2018-02-18T05:23:20.044Z,1031.87
2018-02-18T05:24:47.365Z,1031.86
2018-02-18T05:26:14.596Z,1031.88
2018-02-18T05:27:41.671Z,1031.86
2018-02-18T05:29:08.894Z,1031.91
2018-02-18T05:30:35.979Z,1031.92
2018-02-18T05:32:03.199Z,1031.92
2018-02-18T05:33:30.461Z,1031.91
2018-02-18T05:34:57.692Z,1031.91
2018-02-18T05:36:25.097Z,1031.90
2018-02-18T05:37:52.060Z,1031.92
2018-02-18T05:39:19.288Z,1031.91
2018-02-18T05:40:46.455Z,1031.93
2018-02-18T05:42:13.664Z,1031.94
2018-02-18T05:43:40.837Z,1031.96
2018-02-18T05:45:07.979Z,1031.96
2018-02-18T05:46:35.032Z,1031.97
2018-02-18T05:48:02.352Z,1031.99
2018-02-18T05:49:29.092Z,1031.98
2018-02-18T05:50:56.380Z,1031.99
2018-02-18T05:52:23.598Z,1031.99
2018-02-18T05:53:50.697Z,1031.99
2018-02-18T05:55:17.814Z,1031.99
2018-02-18T05:56:45.143Z,1032.01
2018-02-18T05:58:12.229Z,1032.04
2018-02-18T05:59:39.395Z,1032.06
2018-02-18T06:01:06.565Z,1032.07
2018-02-18T06:02:33.810Z,1032.09
2018-02-18T06:04:00.887Z,1032.09
2018-02-18T06:05:28.108Z,1032.10
2018-02-18T06:06:55.350Z,1032.12
2018-02-18T06:08:22.541Z,1032.12
2018-02-18T06:09:49.710Z,1032.13
2018-02-18T06:11:16.863Z,1032.11
2018-02-18T06:12:44.031Z,1032.12
2018-02-18T06:14:10.892Z,1032.11
2018-02-18T06:15:38.110Z,1032.12
2018-02-18T06:17:05.448Z,1032.14
2018-02-18T06:18:32.660Z,1032.15
2018-02-18T06:19:59.781Z,1032.17
2018-02-18T06:21:26.907Z,1032.18
2018-02-18T06:22:54.176Z,1032.20
2018-02-18T06:24:21.448Z,1032.19
2018-02-18T06:25:48.881Z,1032.20
2018-02-18T06:27:15.906Z,1032.20
2018-02-18T06:28:43.098Z,1032.22
2018-02-18T06:30:10.326Z,1032.20
2018-02-18T06:31:37.673Z,1032.18
2018-02-18T06:33:04.440Z,1032.18
2018-02-18T06:34:31.720Z,1032.17
2018-02-18T06:35:58.851Z,1032.17
2018-02-18T06:37:26.052Z,1032.17
2018-02-18T06:38:53.228Z,1032.18
2018-02-18T06:40:20.278Z,1032.20
2018-02-18T06:41:47.647Z,1032.20
2018-02-18T06:43:14.848Z,1032.23
2018-02-18T06:44:41.840Z,1032.25
2018-02-18T06:46:08.952Z,1032.27
2018-02-18T06:47:36.071Z,1032.25
2018-02-18T06:49:03.267Z,1032.27
2018-02-18T06:50:30.454Z,1032.23
2018-02-18T06:51:57.719Z,1032.27
2018-02-18T06:53:24.924Z,1032.25
2018-02-18T06:54:52.081Z,1032.29
2018-02-18T06:56:19.255Z,1032.27
2018-02-18T06:57:46.530Z,1032.28
2018-02-18T06:59:13.764Z,1032.28
2018-02-18T07:00:40.845Z,1032.29
2018-02-18T07:02:07.867Z,1032.27
2018-02-18T07:03:35.123Z,1032.27
2018-02-18T07:05:02.310Z,1032.25
2018-02-18T07:06:29.500Z,1032.26
2018-02-18T07:07:56.628Z,1032.26
2018-02-18T07:09:23.887Z,1032.26
2018-02-18T07:10:51.059Z,1032.25
2018-02-18T07:12:18.161Z,1032.28
2018-02-18T07:13:45.320Z,1032.28
2018-02-18T07:15:12.492Z,1032.30
2018-02-18T07:16:39.640Z,1032.30
2018-02-18T07:18:06.630Z,1032.29
2018-02-18T07:19:33.839Z,1032.32
2018-02-18T07:21:00.876Z,1032.35
2018-02-18T07:22:28.019Z,1032.39
2018-02-18T07:23:55.284Z,1032.44
2018-02-18T07:25:22.114Z,1032.43
2018-02-18T07:26:49.294Z,1032.42
2018-02-18T07:28:16.596Z,1032.43
2018-02-18T07:29:43.511Z,1032.46
2018-02-18T07:31:10.485Z,1032.44
2018-02-18T07:32:37.301Z,1032.45
2018-02-18T07:34:04.281Z,1032.44
2018-02-18T07:35:31.503Z,1032.44
2018-02-18T07:36:58.808Z,1032.44
2018-02-18T07:38:26.097Z,1032.44
2018-02-18T07:39:53.021Z,1032.42
2018-02-18T07:41:20.464Z,1032.43
2018-02-18T07:42:47.592Z,1032.42
2018-02-18T07:44:14.617Z,1032.39
2018-02-18T07:45:41.745Z,1032.39
2018-02-18T07:47:09.007Z,1032.40
2018-02-18T07:48:36.279Z,1032.36
2018-02-18T07:50:03.551Z,1032.36
2018-02-18T07:51:30.843Z,1032.36
2018-02-18T07:52:57.832Z,1032.34
2018-02-18T07:54:25.014Z,1032.34
2018-02-18T07:55:52.225Z,1032.33
2018-02-18T07:57:19.584Z,1032.35
2018-02-18T07:58:46.739Z,1032.34
2018-02-18T08:00:13.920Z,1032.31
2018-02-18T08:01:40.828Z,1032.31
2018-02-18T08:03:08.002Z,1032.33
2018-02-18T08:04:34.992Z,1032.32
2018-02-18T08:06:01.994Z,1032.33
2018-02-18T08:07:29.085Z,1032.33
2018-02-18T08:08:56.238Z,1032.35
2018-02-18T08:10:23.603Z,1032.32
2018-02-18T08:11:50.733Z,1032.32
2018-02-18T08:13:17.943Z,1032.32
2018-02-18T08:14:45.249Z,1032.33
2018-02-18T08:16:12.325Z,1032.35
2018-02-18T08:17:39.496Z,1032.33
2018-02-18T08:19:06.799Z,1032.34
2018-02-18T08:20:34.082Z,1032.38
2018-02-18T08:22:01.406Z,1032.38
2018-02-18T08:23:28.619Z,1032.40
2018-02-18T08:24:55.726Z,1032.41
2018-02-18T08:26:23.069Z,1032.41
2018-02-18T08:27:50.141Z,1032.41
2018-02-18T08:29:26.963Z,1032.42
2018-02-18T08:30:54.077Z,1032.41
2018-02-18T08:32:21.347Z,1032.41
2018-02-18T08:33:48.516Z,1032.41
2018-02-18T08:35:15.722Z,1032.41
2018-02-18T08:36:42.829Z,1032.40
2018-02-18T08:38:10.118Z,1032.38
2018-02-18T08:39:36.683Z,1032.37
2018-02-18T08:41:03.980Z,1032.36
2018-02-18T08:42:31.065Z,1032.35
2018-02-18T08:43:58.327Z,1032.34
2018-02-18T08:45:25.603Z,1032.33
2018-02-18T08:46:52.001Z,1032.35
2018-02-18T08:48:18.988Z,1032.34
2018-02-18T08:49:46.080Z,1032.34
2018-02-18T08:51:12.869Z,1032.33
2018-02-18T08:52:40.061Z,1032.30
2018-02-18T08:54:06.751Z,1032.32
2018-02-18T08:55:33.637Z,1032.32
2018-02-18T08:57:00.813Z,1032.35
2018-02-18T08:58:28.122Z,1032.38
2018-02-18T08:59:55.369Z,1032.38
2018-02-18T09:01:21.979Z,1032.41
2018-02-18T09:02:49.199Z,1032.43
2018-02-18T09:04:16.377Z,1032.42
2018-02-18T09:05:43.311Z,1032.42
2018-02-18T09:07:10.526Z,1032.43
2018-02-18T09:08:37.693Z,1032.44
2018-02-18T09:10:04.994Z,1032.43
2018-02-18T09:11:32.102Z,1032.42
2018-02-18T09:12:59.409Z,1032.42
2018-02-18T09:14:26.731Z,1032.38
2018-02-18T09:15:53.637Z,1032.41
2018-02-18T09:17:20.913Z,1032.40
2018-02-18T09:18:48.155Z,1032.41
2018-02-18T09:20:15.352Z,1032.40
2018-02-18T09:21:42.469Z,1032.41
2018-02-18T09:23:09.785Z,1032.39
2018-02-18T09:24:36.978Z,1032.39
2018-02-18T09:26:04.243Z,1032.39
2018-02-18T09:27:31.134Z,1032.40
2018-02-18T09:28:58.580Z,1032.41
2018-02-18T09:30:25.748Z,1032.40
2018-02-18T09:31:52.565Z,1032.40
2018-02-18T09:33:19.737Z,1032.41
2018-02-18T09:34:46.599Z,1032.42
2018-02-18T09:36:13.327Z,1032.41
2018-02-18T09:37:40.209Z,1032.44
2018-02-18T09:39:07.238Z,1032.46
2018-02-18T09:40:34.653Z,1032.46
2018-02-18T09:42:01.793Z,1032.45
2018-02-18T09:43:29.058Z,1032.45
2018-02-18T09:44:56.292Z,1032.45
2018-02-18T09:46:22.963Z,1032.44
2018-02-18T09:47:49.552Z,1032.47
2018-02-18T09:49:16.816Z,1032.47
2018-02-18T09:50:44.048Z,1032.47
2018-02-18T09:52:10.728Z,1032.47
2018-02-18T09:53:37.563Z,1032.47
2018-02-18T09:55:04.690Z,1032.48
2018-02-18T09:56:31.948Z,1032.47
2018-02-18T09:57:59.212Z,1032.48
2018-02-18T09:59:26.089Z,1032.50
2018-02-18T10:00:53.534Z,1032.49
2018-02-18T10:02:20.743Z,1032.50
2018-02-18T10:03:47.724Z,1032.47
2018-02-18T10:05:14.637Z,1032.46
2018-02-18T10:06:41.964Z,1032.46
2018-02-18T10:08:09.014Z,1032.44
2018-02-18T10:09:36.306Z,1032.44
2018-02-18T10:11:03.652Z,1032.45
2018-02-18T10:12:30.820Z,1032.43
2018-02-18T10:13:58.088Z,1032.44
2018-02-18T10:15:25.273Z,1032.45
2018-02-18T10:16:52.642Z,1032.43
2018-02-18T10:18:19.898Z,1032.41
2018-02-18T10:19:46.756Z,1032.41
2018-02-18T10:21:13.931Z,1032.43
2018-02-18T10:22:41.072Z,1032.45
2018-02-18T10:24:08.312Z,1032.46
2018-02-18T10:25:35.238Z,1032.44
2018-02-18T10:27:02.463Z,1032.41
2018-02-18T10:28:29.763Z,1032.41
2018-02-18T10:29:57.104Z,1032.38
2018-02-18T10:31:24.186Z,1032.35
2018-02-18T10:32:51.385Z,1032.33
2018-02-18T10:34:18.684Z,1032.33
2018-02-18T10:35:46.049Z,1032.32
2018-02-18T10:37:13.124Z,1032.29
2018-02-18T10:38:40.265Z,1032.30
2018-02-18T10:40:07.703Z,1032.30
2018-02-18T10:41:35.033Z,1032.29
2018-02-18T10:43:02.423Z,1032.29
2018-02-18T10:44:29.695Z,1032.27
2018-02-18T10:45:57.046Z,1032.29
2018-02-18T10:47:24.300Z,1032.33
2018-02-18T10:48:51.583Z,1032.31
2018-02-18T10:50:18.411Z,1032.31
2018-02-18T10:51:45.492Z,1032.29
2018-02-18T10:53:12.719Z,1032.26
2018-02-18T10:54:39.875Z,1032.25
2018-02-18T10:56:07.140Z,1032.25
2018-02-18T10:57:34.500Z,1032.24
2018-02-18T10:59:01.724Z,1032.22
2018-02-18T11:00:29.199Z,1032.23
2018-02-18T11:01:56.379Z,1032.20
2018-02-18T11:03:23.604Z,1032.17
2018-02-18T11:04:50.841Z,1032.17
2018-02-18T11:06:17.984Z,1032.18
2018-02-18T11:07:45.176Z,1032.16
2018-02-18T11:09:12.222Z,1032.14
2018-02-18T11:10:39.229Z,1032.16
2018-02-18T11:12:06.394Z,1032.20
2018-02-18T11:13:33.537Z,1032.21
2018-02-18T11:15:00.859Z,1032.19
2018-02-18T11:16:28.039Z,1032.18
2018-02-18T11:17:55.355Z,1032.19
2018-02-18T11:19:22.584Z,1032.17
2018-02-18T11:20:49.656Z,1032.17
2018-02-18T11:22:16.865Z,1032.15
2018-02-18T11:23:44.149Z,1032.14
2018-02-18T11:25:11.072Z,1032.09
2018-02-18T11:26:37.996Z,1032.08
2018-02-18T11:28:05.266Z,1032.03
2018-02-18T11:29:31.686Z,1032.01
2018-02-18T11:30:59.049Z,1032.01
2018-02-18T11:32:26.228Z,1031.99
2018-02-18T11:33:53.405Z,1031.99
2018-02-18T11:35:20.684Z,1031.97
2018-02-18T11:36:47.862Z,1031.95
2018-02-18T11:38:14.443Z,1031.89
2018-02-18T11:39:41.669Z,1031.90
2018-02-18T11:41:08.269Z,1031.86
2018-02-18T11:42:35.366Z,1031.82
2018-02-18T11:44:02.663Z,1031.81
2018-02-18T11:45:29.826Z,1031.80
2018-02-18T11:46:57.042Z,1031.78
2018-02-18T11:48:23.765Z,1031.76
2018-02-18T11:49:50.719Z,1031.74
2018-02-18T11:51:17.508Z,1031.74
2018-02-18T11:52:44.559Z,1031.74
2018-02-18T11:54:11.716Z,1031.74
2018-02-18T11:55:38.913Z,1031.73
2018-02-18T11:57:06.079Z,1031.70
2018-02-18T11:58:33.205Z,1031.72
2018-02-18T12:00:00.256Z,1031.68
2018-02-18T12:01:27.920Z,1031.66
2018-02-18T12:02:55.101Z,1031.64
2018-02-18T12:04:22.438Z,1031.60
2018-02-18T12:05:49.082Z,1031.59
2018-02-18T12:07:15.868Z,1031.56
2018-02-18T12:08:43.197Z,1031.52
2018-02-18T12:10:10.413Z,1031.50
2018-02-18T12:11:37.785Z,1031.46
2018-02-18T12:13:05.204Z,1031.44
2018-02-18T12:14:32.398Z,1031.39
2018-02-18T12:15:59.168Z,1031.36
2018-02-18T12:17:26.548Z,1031.34
2018-02-18T12:18:53.890Z,1031.32
2018-02-18T12:20:21.109Z,1031.29
2018-02-18T12:21:48.399Z,1031.24
2018-02-18T12:23:15.696Z,1031.22
2018-02-18T12:24:42.611Z,1031.19
2018-02-18T12:26:09.688Z,1031.16
2018-02-18T12:27:36.983Z,1031.13
2018-02-18T12:29:04.188Z,1031.16
2018-02-18T12:30:31.530Z,1031.06
2018-02-18T12:31:58.554Z,1031.04
2018-02-18T12:33:25.973Z,1031.04
2018-02-18T12:34:53.139Z,1031.04
2018-02-18T12:36:20.447Z,1031.01
2018-02-18T12:37:47.591Z,1030.96
2018-02-18T12:39:14.747Z,1030.94
2018-02-18T12:40:42.005Z,1030.95
2018-02-18T12:42:09.162Z,1030.97
2018-02-18T12:43:36.505Z,1030.97
2018-02-18T12:45:03.827Z,1030.96
2018-02-18T12:46:30.877Z,1030.95
2018-02-18T12:47:58.001Z,1030.90
2018-02-18T12:49:25.273Z,1030.86
2018-02-18T12:50:52.536Z,1030.86
2018-02-18T12:52:19.308Z,1030.85
2018-02-18T12:53:46.559Z,1030.84
2018-02-18T12:55:13.857Z,1030.81
2018-02-18T12:56:40.874Z,1030.83
2018-02-18T12:58:07.882Z,1030.78
2018-02-18T12:59:35.216Z,1030.76
2018-02-18T13:01:02.469Z,1030.75
2018-02-18T13:02:29.186Z,1030.73
2018-02-18T13:03:56.474Z,1030.74
2018-02-18T13:05:23.906Z,1030.75
2018-02-18T13:06:51.254Z,1030.73
2018-02-18T13:08:18.641Z,1030.73
2018-02-18T13:09:45.712Z,1030.76
2018-02-18T13:11:12.862Z,1030.78
2018-02-18T13:12:39.871Z,1030.75
2018-02-18T13:14:07.298Z,1030.74
2018-02-18T13:15:34.584Z,1030.75
2018-02-18T13:17:01.574Z,1030.72
2018-02-18T13:18:28.926Z,1030.69
2018-02-18T13:19:56.284Z,1030.68
2018-02-18T13:21:23.675Z,1030.67
2018-02-18T13:22:50.916Z,1030.69
2018-02-18T13:24:18.261Z,1030.74
2018-02-18T13:25:45.473Z,1030.76
2018-02-18T13:27:12.112Z,1030.73
2018-02-18T13:28:39.303Z,1030.75
2018-02-18T13:30:06.688Z,1030.74
2018-02-18T13:31:33.392Z,1030.76
2018-02-18T13:33:00.149Z,1030.74
2018-02-18T13:34:26.681Z,1030.74
2018-02-18T13:35:53.358Z,1030.69
2018-02-18T13:37:20.485Z,1030.67
2018-02-18T13:38:47.907Z,1030.66
2018-02-18T13:40:15.182Z,1030.65
2018-02-18T13:41:42.458Z,1030.66
2018-02-18T13:43:09.361Z,1030.62
2018-02-18T13:44:36.670Z,1030.62
2018-02-18T13:46:03.953Z,1030.62
2018-02-18T13:47:31.402Z,1030.62
2018-02-18T13:48:58.847Z,1030.60
2018-02-18T13:50:26.114Z,1030.63
2018-02-18T13:51:53.374Z,1030.63
2018-02-18T13:53:20.703Z,1030.64
2018-02-18T13:54:47.631Z,1030.59
2018-02-18T13:56:14.864Z,1030.60
2018-02-18T13:57:42.176Z,1030.56
2018-02-18T13:59:09.225Z,1030.52
2018-02-18T14:00:36.258Z,1030.54
2018-02-18T14:02:03.486Z,1030.55
2018-02-18T14:03:30.795Z,1030.58
2018-02-18T14:04:58.004Z,1030.55
2018-02-18T14:06:25.033Z,1030.55
2018-02-18T14:07:52.431Z,1030.55
2018-02-18T14:09:19.605Z,1030.58
2018-02-18T14:10:46.823Z,1030.58
2018-02-18T14:12:14.147Z,1030.60
2018-02-18T14:13:41.293Z,1030.59
2018-02-18T14:15:08.561Z,1030.56
2018-02-18T14:16:35.633Z,1030.55
2018-02-18T14:18:02.856Z,1030.52
2018-02-18T14:19:29.749Z,1030.49
2018-02-18T14:20:56.739Z,1030.49
2018-02-18T14:22:23.995Z,1030.47
2018-02-18T14:23:51.131Z,1030.47
2018-02-18T14:25:18.562Z,1030.47
2018-02-18T14:26:45.919Z,1030.44
2018-02-18T14:28:13.030Z,1030.44
2018-02-18T14:29:39.594Z,1030.42
2018-02-18T14:31:06.943Z,1030.40
2018-02-18T14:32:34.219Z,1030.42
2018-02-18T14:34:01.310Z,1030.43
2018-02-18T14:35:28.236Z,1030.41
2018-02-18T14:36:55.670Z,1030.39
2018-02-18T14:38:22.260Z,1030.37
2018-02-18T14:39:48.874Z,1030.33
2018-02-18T14:41:16.098Z,1030.35
2018-02-18T14:42:43.471Z,1030.34
2018-02-18T14:44:10.616Z,1030.34
2018-02-18T14:45:37.995Z,1030.34
2018-02-18T14:47:04.801Z,1030.35
2018-02-18T14:48:31.927Z,1030.33
2018-02-18T14:49:59.234Z,1030.35
2018-02-18T14:51:26.416Z,1030.32
2018-02-18T14:52:53.815Z,1030.32
2018-02-18T14:54:20.999Z,1030.32
2018-02-18T14:55:48.356Z,1030.33
2018-02-18T14:57:15.368Z,1030.33
2018-02-18T14:58:42.206Z,1030.34
2018-02-18T15:00:09.614Z,1030.33
2018-02-18T15:01:36.817Z,1030.30
2018-02-18T15:03:04.072Z,1030.28
2018-02-18T15:04:31.180Z,1030.26
2018-02-18T15:05:58.359Z,1030.26
2018-02-18T15:07:25.673Z,1030.27
2018-02-18T15:08:52.340Z,1030.25
2018-02-18T15:10:19.632Z,1030.25
2018-02-18T15:11:46.904Z,1030.26
2018-02-18T15:13:14.368Z,1030.28
2018-02-18T15:14:40.933Z,1030.28
2018-02-18T15:16:08.099Z,1030.28
2018-02-18T15:17:35.340Z,1030.28
2018-02-18T15:19:02.311Z,1030.27
2018-02-18T15:20:29.503Z,1030.25
2018-02-18T15:21:56.685Z,1030.23
2018-02-18T15:23:23.598Z,1030.23
2018-02-18T15:24:50.575Z,1030.20
2018-02-18T15:26:18.946Z,1030.20
2018-02-18T15:27:45.206Z,1030.20
2018-02-18T15:29:12.309Z,1030.21
2018-02-18T15:30:38.948Z,1030.22
2018-02-18T15:32:06.332Z,1030.23
2018-02-18T15:33:33.508Z,1030.26
2018-02-18T15:35:00.614Z,1030.28
2018-02-18T15:36:27.711Z,1030.26
2018-02-18T15:37:54.974Z,1030.25
2018-02-18T15:39:21.602Z,1030.24
2018-02-18T15:40:48.991Z,1030.21
2018-02-18T15:42:15.785Z,1030.20
2018-02-18T15:43:43.122Z,1030.17
2018-02-18T15:45:10.411Z,1030.19
2018-02-18T15:46:37.039Z,1030.26
2018-02-18T15:48:04.372Z,1030.27
2018-02-18T15:49:31.347Z,1030.26
2018-02-18T15:50:58.457Z,1030.26
2018-02-18T15:52:25.499Z,1030.23
2018-02-18T15:53:52.693Z,1030.23
2018-02-18T15:55:19.964Z,1030.22
2018-02-18T15:56:47.375Z,1030.20
2018-02-18T15:58:14.416Z,1030.18
2018-02-18T15:59:41.687Z,1030.18
2018-02-18T16:01:09.161Z,1030.16
2018-02-18T16:02:36.250Z,1030.16
2018-02-18T16:04:03.454Z,1030.18
2018-02-18T16:05:30.335Z,1030.17
2018-02-18T16:06:57.217Z,1030.17
2018-02-18T16:08:24.671Z,1030.16
2018-02-18T16:09:51.716Z,1030.15
2018-02-18T16:11:18.974Z,1030.11
2018-02-18T16:12:46.060Z,1030.08
2018-02-18T16:14:13.407Z,1030.07
2018-02-18T16:15:40.427Z,1030.07
2018-02-18T16:17:07.623Z,1030.09
2018-02-18T16:18:34.887Z,1030.10
2018-02-18T16:20:01.987Z,1030.08
2018-02-18T16:21:29.072Z,1030.05
2018-02-18T16:22:55.758Z,1030.04
2018-02-18T16:24:23.007Z,1030.02
2018-02-18T16:25:50.366Z,1030.02
2018-02-18T16:27:17.530Z,1030.03
2018-02-18T16:28:44.755Z,1030.02
2018-02-18T16:30:11.934Z,1030.05
2018-02-18T16:31:39.225Z,1030.07
2018-02-18T16:33:06.194Z,1030.06
2018-02-18T16:34:33.445Z,1030.05
2018-02-18T16:36:00.652Z,1030.04
2018-02-18T16:37:27.514Z,1030.00
2018-02-18T16:38:54.783Z,1030.00
2018-02-18T16:40:21.681Z,1029.98
2018-02-18T16:41:48.916Z,1029.99
2018-02-18T16:43:16.148Z,1029.99
2018-02-18T16:44:43.411Z,1030.00
2018-02-18T16:46:10.697Z,1030.03
2018-02-18T16:47:38.005Z,1030.03
2018-02-18T16:49:05.114Z,1030.03
2018-02-18T16:50:32.376Z,1030.06
2018-02-18T16:51:59.509Z,1030.07
2018-02-18T16:53:26.603Z,1030.10
2018-02-18T16:54:53.805Z,1030.13
2018-02-18T16:56:21.061Z,1030.15
2018-02-18T16:57:48.120Z,1030.18
2018-02-18T16:59:15.160Z,1030.18
2018-02-18T17:00:42.370Z,1030.18
2018-02-18T17:02:09.677Z,1030.18
2018-02-18T17:03:36.971Z,1030.18
2018-02-18T17:05:04.095Z,1030.19
2018-02-18T17:06:31.133Z,1030.22
2018-02-18T17:07:58.249Z,1030.20
2018-02-18T17:09:25.398Z,1030.18
2018-02-18T17:10:52.727Z,1030.18
2018-02-18T17:12:20.046Z,1030.18
2018-02-18T17:13:47.247Z,1030.18
2018-02-18T17:15:14.410Z,1030.17
2018-02-18T17:16:41.588Z,1030.17
2018-02-18T17:18:08.836Z,1030.15
2018-02-18T17:19:36.158Z,1030.18
2018-02-18T17:21:03.210Z,1030.15
2018-02-18T17:22:30.335Z,1030.15
2018-02-18T17:23:57.223Z,1030.13
2018-02-18T17:25:24.262Z,1030.13
2018-02-18T17:26:51.611Z,1030.12
2018-02-18T17:28:18.884Z,1030.14
2018-02-18T17:29:45.522Z,1030.11
2018-02-18T17:31:12.681Z,1030.13
2018-02-18T17:32:39.945Z,1030.14
2018-02-18T17:34:07.127Z,1030.13